createdAt,value
2022-11-16T00:02:14.800Z,82.99
2022-11-16T00:04:43.296Z,82.97
2022-11-16T00:07:11.786Z,83.02
2022-11-16T00:09:40.326Z,82.99
2022-11-16T00:12:11.184Z,83.15
2022-11-16T00:14:39.630Z,83.12
2022-11-16T00:17:08.082Z,82.74
2022-11-16T00:19:36.462Z,83.10
2022-11-16T00:22:04.974Z,82.87
2022-11-16T00:24:33.397Z,82.92
2022-11-16T00:27:01.788Z,82.90
2022-11-16T00:29:30.260Z,82.63
2022-11-16T00:31:58.631Z,82.83
2022-11-16T00:34:27.002Z,82.43
2022-11-16T00:36:55.611Z,82.47
2022-11-16T00:39:24.376Z,82.37
2022-11-16T00:41:52.668Z,82.47
2022-11-16T00:44:21.053Z,81.96
2022-11-16T00:46:49.580Z,82.11
2022-11-16T00:49:18.238Z,82.34
2022-11-16T00:51:46.623Z,82.66
2022-11-16T00:54:15.046Z,82.44
2022-11-16T00:56:43.304Z,82.34
2022-11-16T00:59:11.888Z,82.57
2022-11-16T01:01:40.488Z,82.76
2022-11-16T01:04:08.935Z,82.51
2022-11-16T01:06:37.284Z,82.83
2022-11-16T01:09:05.795Z,83.03
2022-11-16T01:11:52.827Z,82.74
2022-11-16T01:14:21.308Z,83.14
2022-11-16T01:16:50.650Z,82.88
2022-11-16T01:19:19.119Z,82.94
2022-11-16T01:21:47.692Z,82.95
2022-11-16T01:24:16.154Z,82.83
2022-11-16T01:26:44.540Z,82.62
2022-11-16T01:29:12.913Z,82.54
2022-11-16T01:31:41.455Z,82.07
2022-11-16T01:34:09.995Z,81.96
2022-11-16T01:36:38.411Z,81.73
2022-11-16T01:39:07.082Z,82.03
2022-11-16T01:41:35.477Z,82.06
2022-11-16T01:44:07.443Z,82.06
2022-11-16T01:46:35.983Z,82.11
2022-11-16T01:49:08.648Z,82.48
2022-11-16T01:51:38.283Z,82.31
2022-11-16T01:54:10.250Z,82.72
2022-11-16T01:56:39.746Z,82.78
2022-11-16T01:59:08.588Z,82.87
2022-11-16T02:01:37.048Z,82.93
2022-11-16T02:04:05.880Z,83.07
2022-11-16T02:07:00.351Z,82.93
2022-11-16T02:09:54.906Z,82.98
2022-11-16T02:12:50.014Z,83.19
2022-11-16T02:15:27.071Z,83.12
2022-11-16T02:18:13.564Z,82.98
2022-11-16T02:21:01.139Z,82.78
2022-11-16T02:23:44.785Z,82.79
2022-11-16T02:26:40.584Z,82.90
2022-11-16T02:29:24.173Z,83.06
2022-11-16T02:32:03.337Z,83.25
2022-11-16T02:34:36.765Z,83.26
2022-11-16T02:37:07.389Z,83.12
2022-11-16T02:39:39.079Z,82.93
2022-11-16T02:42:13.694Z,82.98
2022-11-16T02:44:46.049Z,83.18
2022-11-16T02:47:21.114Z,82.88
2022-11-16T02:49:55.455Z,83.19
2022-11-16T02:52:25.352Z,83.04
2022-11-16T02:54:53.508Z,82.95
2022-11-16T02:57:55.757Z,83.04
2022-11-16T03:00:38.012Z,83.02
2022-11-16T03:03:19.424Z,82.97
2022-11-16T03:05:53.320Z,83.27
2022-11-16T03:08:31.553Z,83.21
2022-11-16T03:11:24.036Z,82.78
2022-11-16T03:13:57.328Z,83.17
2022-11-16T03:16:32.198Z,82.90
2022-11-16T03:19:03.999Z,82.83
2022-11-16T03:21:45.687Z,82.80
2022-11-16T03:24:14.673Z,82.80
2022-11-16T03:26:49.068Z,82.70
2022-11-16T03:29:30.637Z,82.74
2022-11-16T03:32:51.358Z,82.82
2022-11-16T03:35:34.823Z,82.70
2022-11-16T03:38:05.954Z,82.55
2022-11-16T03:40:36.641Z,82.57
2022-11-16T03:43:07.204Z,82.73
2022-11-16T03:45:36.767Z,82.76
2022-11-16T03:48:07.242Z,82.27
2022-11-16T03:50:35.596Z,82.53
2022-11-16T03:53:03.938Z,82.46
2022-11-16T03:55:32.302Z,82.57
2022-11-16T03:58:00.778Z,82.38
2022-11-16T04:00:29.332Z,82.64
2022-11-16T04:02:57.653Z,82.61
2022-11-16T04:05:44.314Z,82.53
2022-11-16T04:08:34.402Z,82.60
2022-11-16T04:11:21.506Z,82.38
2022-11-16T04:14:10.059Z,82.24
2022-11-16T04:16:56.855Z,82.31
2022-11-16T04:19:43.587Z,82.40
2022-11-16T04:22:39.684Z,82.22
2022-11-16T04:25:20.352Z,82.17
2022-11-16T04:28:07.466Z,82.05
2022-11-16T04:30:54.715Z,82.30
2022-11-16T04:33:41.757Z,82.22
2022-11-16T04:36:28.692Z,82.15
2022-11-16T04:38:56.983Z,82.01
2022-11-16T04:41:43.613Z,81.75
2022-11-16T04:44:12.367Z,81.99
2022-11-16T04:46:59.057Z,82.29
2022-11-16T04:49:27.317Z,81.92
2022-11-16T04:51:55.559Z,82.20
2022-11-16T04:54:24.001Z,81.89
2022-11-16T04:56:52.225Z,81.98
2022-11-16T04:59:20.565Z,82.06
2022-11-16T05:02:07.600Z,82.02
2022-11-16T05:04:41.245Z,81.97
2022-11-16T05:07:12.122Z,82.00
2022-11-16T05:09:48.288Z,81.80
2022-11-16T05:12:27.183Z,81.67
2022-11-16T05:14:55.995Z,81.70
2022-11-16T05:17:25.899Z,81.91
2022-11-16T05:20:12.657Z,81.67
2022-11-16T05:22:41.191Z,81.61
2022-11-16T05:25:10.997Z,81.66
2022-11-16T05:27:39.370Z,81.56
2022-11-16T05:30:09.484Z,81.38
2022-11-16T05:32:37.794Z,81.46
2022-11-16T05:35:06.215Z,81.55
2022-11-16T05:37:34.409Z,81.56
2022-11-16T05:40:02.731Z,81.55
2022-11-16T05:42:30.985Z,81.74
2022-11-16T05:44:59.791Z,81.66
2022-11-16T05:47:28.171Z,81.75
2022-11-16T05:49:56.417Z,81.54
2022-11-16T05:52:24.772Z,81.79
2022-11-16T05:54:53.207Z,81.60
2022-11-16T05:57:21.797Z,81.69
2022-11-16T05:59:50.013Z,81.65
2022-11-16T06:02:18.400Z,81.59
2022-11-16T06:04:46.735Z,81.72
2022-11-16T06:07:15.482Z,81.78
2022-11-16T06:09:44.027Z,81.64
2022-11-16T06:12:12.352Z,81.60
2022-11-16T06:14:40.663Z,82.00
2022-11-16T06:17:10.533Z,81.90
2022-11-16T06:19:38.931Z,81.63
2022-11-16T06:22:07.935Z,81.73
2022-11-16T06:24:36.218Z,81.52
2022-11-16T06:27:04.504Z,81.54
2022-11-16T06:29:32.727Z,81.64
2022-11-16T06:32:01.207Z,81.29
2022-11-16T06:34:29.577Z,81.70
2022-11-16T06:36:57.800Z,81.71
2022-11-16T06:39:26.113Z,81.63
2022-11-16T06:41:54.401Z,81.46
2022-11-16T06:44:22.617Z,81.70
2022-11-16T06:46:50.920Z,81.54
2022-11-16T06:49:19.233Z,81.21
2022-11-16T06:51:47.466Z,81.11
2022-11-16T06:54:16.072Z,81.19
2022-11-16T06:56:44.382Z,81.08
2022-11-16T06:59:12.672Z,81.13
2022-11-16T07:01:41.022Z,80.90
2022-11-16T07:04:12.170Z,80.96
2022-11-16T07:06:40.492Z,80.75
2022-11-16T07:09:09.875Z,80.99
2022-11-16T07:11:38.200Z,80.54
2022-11-16T07:14:06.543Z,80.96
2022-11-16T07:16:36.426Z,80.89
2022-11-16T07:19:04.935Z,80.60
2022-11-16T07:21:33.124Z,80.49
2022-11-16T07:24:01.317Z,80.04
2022-11-16T07:26:31.317Z,79.88
2022-11-16T07:29:00.045Z,79.32
2022-11-16T07:31:28.592Z,79.29
2022-11-16T07:33:57.019Z,77.89
2022-11-16T07:36:25.375Z,77.50
2022-11-16T07:38:54.431Z,76.60
2022-11-16T07:41:22.918Z,75.89
2022-11-16T07:43:53.341Z,75.61
2022-11-16T07:49:17.284Z,74.64
2022-11-16T07:51:45.924Z,74.25
2022-11-16T07:54:15.407Z,74.49
2022-11-16T07:56:43.678Z,74.12
2022-11-16T07:59:11.900Z,74.10
2022-11-16T08:01:40.345Z,72.80
2022-11-16T08:04:08.660Z,72.81
2022-11-16T08:06:37.075Z,73.35
2022-11-16T08:09:05.419Z,72.70
2022-11-16T08:11:33.990Z,72.12
2022-11-16T08:14:02.477Z,72.77
2022-11-16T08:16:33.496Z,72.22
2022-11-16T08:19:02.501Z,71.77
2022-11-16T08:21:30.882Z,72.78
2022-11-16T08:23:59.305Z,72.08
2022-11-16T08:26:27.933Z,72.65
2022-11-16T08:28:57.361Z,72.77
2022-11-16T08:31:28.856Z,72.85
2022-11-16T08:34:00.178Z,72.04
2022-11-16T08:36:28.786Z,70.99
2022-11-16T08:38:57.000Z,71.12
2022-11-16T08:41:25.370Z,71.66
2022-11-16T08:43:54.632Z,71.84
2022-11-16T08:46:22.906Z,73.06
2022-11-16T08:48:56.331Z,72.27
2022-11-16T08:51:25.802Z,70.69
2022-11-16T08:53:58.465Z,72.01
2022-11-16T08:56:27.561Z,72.46
2022-11-16T08:58:58.891Z,72.45
2022-11-16T09:01:30.307Z,72.35
2022-11-16T09:03:59.895Z,71.14
2022-11-16T09:06:28.483Z,69.79
2022-11-16T09:08:57.769Z,69.78
2022-11-16T09:11:26.527Z,69.98
2022-11-16T09:13:55.650Z,69.88
2022-11-16T09:16:24.465Z,69.12
2022-11-16T09:18:52.823Z,68.73
2022-11-16T09:21:23.317Z,69.06
2022-11-16T09:23:52.906Z,68.51
2022-11-16T09:26:23.350Z,68.81
2022-11-16T09:29:01.184Z,69.57
2022-11-16T09:31:34.763Z,69.38
2022-11-16T09:34:04.451Z,69.78
2022-11-16T09:36:33.403Z,69.92
2022-11-16T09:39:29.428Z,69.27
2022-11-16T09:42:27.106Z,68.75
2022-11-16T09:45:07.856Z,69.22
2022-11-16T09:47:52.906Z,69.57
2022-11-16T09:50:36.130Z,69.11
2022-11-16T09:53:33.346Z,68.10
2022-11-16T09:56:26.001Z,68.91
2022-11-16T09:59:15.104Z,69.43
2022-11-16T10:01:56.203Z,70.10
2022-11-16T10:04:57.983Z,69.70
2022-11-16T10:07:34.735Z,68.62
2022-11-16T10:10:03.479Z,69.61
2022-11-16T10:12:38.261Z,69.08
2022-11-16T10:15:15.777Z,68.06
2022-11-16T10:18:08.614Z,68.23
2022-11-16T10:21:03.705Z,68.28
2022-11-16T10:23:43.655Z,68.15
2022-11-16T10:26:11.821Z,68.05
2022-11-16T10:28:54.267Z,68.17
2022-11-16T10:31:26.730Z,67.82
2022-11-16T10:33:57.273Z,68.31
2022-11-16T10:36:30.147Z,68.38
2022-11-16T10:39:00.935Z,68.35
2022-11-16T10:41:46.394Z,69.00
2022-11-16T10:44:28.345Z,69.65
2022-11-16T10:47:03.669Z,69.37
2022-11-16T10:49:44.298Z,68.90
2022-11-16T10:52:12.700Z,69.83
2022-11-16T10:54:44.256Z,69.92
2022-11-16T10:57:16.156Z,69.34
2022-11-16T10:59:50.174Z,69.47
2022-11-16T11:02:37.429Z,69.53
2022-11-16T11:05:15.882Z,69.35
2022-11-16T11:07:56.797Z,68.55
2022-11-16T11:10:42.722Z,69.06
2022-11-16T11:13:10.960Z,69.36
2022-11-16T11:15:41.054Z,69.62
2022-11-16T11:18:30.311Z,69.59
2022-11-16T11:21:06.659Z,69.43
2022-11-16T11:23:42.801Z,69.66
2022-11-16T11:26:33.106Z,70.10
2022-11-16T11:29:36.560Z,70.21
2022-11-16T11:32:08.425Z,69.89
2022-11-16T11:34:47.591Z,68.59
2022-11-16T11:37:28.003Z,69.28
2022-11-16T11:40:23.271Z,68.98
2022-11-16T11:43:02.814Z,67.61
2022-11-16T11:45:50.094Z,67.34
2022-11-16T11:48:26.262Z,66.69
2022-11-16T11:51:05.371Z,67.70
2022-11-16T11:53:57.376Z,68.16
2022-11-16T11:56:27.816Z,67.80
2022-11-16T11:58:56.736Z,67.75
2022-11-16T12:01:28.055Z,68.07
2022-11-16T12:04:22.621Z,68.68
2022-11-16T12:07:20.881Z,68.15
2022-11-16T12:10:22.793Z,68.66
2022-11-16T12:13:09.879Z,69.01
2022-11-16T12:15:46.993Z,67.81
2022-11-16T12:18:30.624Z,68.55
2022-11-16T12:21:15.375Z,66.78
2022-11-16T12:23:59.627Z,67.74
2022-11-16T12:26:46.406Z,67.75
2022-11-16T12:29:32.115Z,68.57
2022-11-16T12:32:02.987Z,68.31
2022-11-16T12:34:37.064Z,68.56
2022-11-16T12:37:20.520Z,68.35
2022-11-16T12:40:30.592Z,68.38
2022-11-16T12:43:11.151Z,67.25
2022-11-16T12:45:48.794Z,68.05
2022-11-16T12:48:43.350Z,68.23
2022-11-16T12:51:20.433Z,67.91
2022-11-16T12:54:09.124Z,68.28
2022-11-16T12:56:49.158Z,68.13
2022-11-16T12:59:33.165Z,68.02
2022-11-16T13:02:08.721Z,68.19
2022-11-16T13:04:46.004Z,68.00
2022-11-16T13:07:25.280Z,68.21
2022-11-16T13:10:02.910Z,68.24
2022-11-16T13:12:32.834Z,67.15
2022-11-16T13:15:03.138Z,66.28
2022-11-16T13:17:35.229Z,67.52
2022-11-16T13:20:47.508Z,68.25
2022-11-16T13:23:22.540Z,68.71
2022-11-16T13:26:04.046Z,68.60
2022-11-16T13:29:04.496Z,68.75
2022-11-16T13:31:44.181Z,68.39
2022-11-16T13:34:39.682Z,68.04
2022-11-16T13:37:39.051Z,68.36
2022-11-16T13:40:07.300Z,68.68
2022-11-16T13:42:43.992Z,68.78
2022-11-16T13:45:21.248Z,68.60
2022-11-16T13:47:53.484Z,68.30
2022-11-16T13:50:40.281Z,68.48
2022-11-16T13:56:09.809Z,67.42
2022-11-16T13:58:47.974Z,67.04
2022-11-16T14:01:19.106Z,67.67
2022-11-16T14:03:51.695Z,67.31
2022-11-16T14:06:20.021Z,67.30
2022-11-16T14:08:50.810Z,67.33
2022-11-16T14:11:31.940Z,67.70
2022-11-16T14:14:30.115Z,67.72
2022-11-16T14:16:58.965Z,67.25
2022-11-16T14:19:47.698Z,67.15
2022-11-16T14:22:35.895Z,66.83
2022-11-16T14:25:13.698Z,67.57
2022-11-16T14:31:14.199Z,67.38
2022-11-16T14:33:42.512Z,67.58
2022-11-16T14:36:11.663Z,67.98
2022-11-16T14:38:42.958Z,68.23
2022-11-16T14:41:21.624Z,68.19
2022-11-16T14:43:53.981Z,68.43
2022-11-16T14:46:30.018Z,68.67
2022-11-16T14:49:01.457Z,68.80
2022-11-16T14:51:34.034Z,69.05
2022-11-16T14:54:11.680Z,69.24
2022-11-16T14:56:58.077Z,69.41
2022-11-16T14:59:27.397Z,69.63
2022-11-16T15:01:56.393Z,69.08
2022-11-16T15:04:28.459Z,69.57
2022-11-16T15:07:04.055Z,69.60
2022-11-16T15:09:39.600Z,69.34
2022-11-16T15:12:35.796Z,69.58
2022-11-16T15:15:12.484Z,69.71
2022-11-16T15:18:00.112Z,69.35
2022-11-16T15:20:31.235Z,69.32
2022-11-16T15:23:01.861Z,69.10
2022-11-16T15:25:36.153Z,68.64
2022-11-16T15:28:15.117Z,68.54
2022-11-16T15:30:46.635Z,68.90
2022-11-16T15:33:41.335Z,68.97
2022-11-16T15:36:45.435Z,69.30
2022-11-16T15:39:28.721Z,69.12
2022-11-16T15:42:03.231Z,69.65
2022-11-16T15:44:33.720Z,69.99
2022-11-16T15:47:03.399Z,70.32
2022-11-16T15:49:36.076Z,70.19
2022-11-16T15:52:05.746Z,70.51
2022-11-16T15:54:54.702Z,70.65
2022-11-16T15:57:24.253Z,70.79
2022-11-16T15:59:54.944Z,71.06
2022-11-16T16:02:30.386Z,71.75
2022-11-16T16:04:58.742Z,71.57
2022-11-16T16:07:41.123Z,71.47
2022-11-16T16:10:27.961Z,71.42
2022-11-16T16:12:59.228Z,71.49
2022-11-16T16:15:34.410Z,71.89
2022-11-16T16:18:11.981Z,71.83
2022-11-16T16:20:48.494Z,72.14
2022-11-16T16:23:25.662Z,72.09
2022-11-16T16:25:53.967Z,72.22
2022-11-16T16:28:22.327Z,72.40
2022-11-16T16:30:53.766Z,72.50
2022-11-16T16:33:23.012Z,72.61
2022-11-16T16:35:51.304Z,72.74
2022-11-16T16:38:19.723Z,72.75
2022-11-16T16:40:47.951Z,72.68
2022-11-16T16:43:16.353Z,72.63
2022-11-16T16:45:45.671Z,72.76
2022-11-16T16:48:13.886Z,72.56
2022-11-16T16:50:42.257Z,72.57
2022-11-16T16:53:13.346Z,72.64
2022-11-16T16:55:42.963Z,72.25
2022-11-16T16:58:12.822Z,72.27
2022-11-16T17:00:41.600Z,72.45
2022-11-16T17:03:10.281Z,72.59
2022-11-16T17:05:38.673Z,72.73
2022-11-16T17:08:07.243Z,72.75
2022-11-16T17:10:38.398Z,72.75
2022-11-16T17:13:06.912Z,72.81
2022-11-16T17:15:35.221Z,72.97
2022-11-16T17:18:03.533Z,73.01
2022-11-16T17:20:33.167Z,73.18
2022-11-16T17:23:01.435Z,73.26
2022-11-16T17:25:31.396Z,73.46
2022-11-16T17:27:59.833Z,73.58
2022-11-16T17:30:28.081Z,73.57
2022-11-16T17:32:57.136Z,73.67
2022-11-16T17:35:25.577Z,73.84
2022-11-16T17:37:55.000Z,73.95
2022-11-16T17:40:23.489Z,74.00
2022-11-16T17:42:52.164Z,73.96
2022-11-16T17:45:20.639Z,74.04
2022-11-16T17:47:49.081Z,74.23
2022-11-16T17:50:17.548Z,74.11
2022-11-16T17:52:48.362Z,74.25
2022-11-16T17:55:32.750Z,74.30
2022-11-16T17:58:01.340Z,74.21
2022-11-16T18:00:31.406Z,74.36
2022-11-16T18:03:01.517Z,74.32
2022-11-16T18:05:30.907Z,74.43
2022-11-16T18:07:59.280Z,74.60
2022-11-16T18:10:27.569Z,74.54
2022-11-16T18:12:56.193Z,74.56
2022-11-16T18:15:42.674Z,74.56
2022-11-16T18:18:11.269Z,74.79
2022-11-16T18:20:40.253Z,74.63
2022-11-16T18:23:08.661Z,74.87
2022-11-16T18:25:37.115Z,75.17
2022-11-16T18:28:05.448Z,75.04
2022-11-16T18:30:34.139Z,75.19
2022-11-16T18:33:02.420Z,75.17
2022-11-16T18:35:30.818Z,75.35
2022-11-16T18:37:59.238Z,75.40
2022-11-16T18:40:28.156Z,75.45
2022-11-16T18:46:05.946Z,75.54
2022-11-16T18:48:34.852Z,75.64
2022-11-16T18:51:04.916Z,75.83
2022-11-16T18:53:33.925Z,75.85
2022-11-16T18:56:03.055Z,75.97
2022-11-16T19:01:22.488Z,75.75
2022-11-16T19:03:51.649Z,75.84
2022-11-16T19:06:20.558Z,75.68
2022-11-16T19:08:55.868Z,75.65
2022-11-16T19:11:25.876Z,75.69
2022-11-16T19:13:56.552Z,75.75
2022-11-16T19:16:25.185Z,75.89
2022-11-16T19:18:53.530Z,75.85
2022-11-16T19:21:22.443Z,75.86
2022-11-16T19:23:52.960Z,75.98
2022-11-16T19:26:24.685Z,76.06
2022-11-16T19:28:53.594Z,76.19
2022-11-16T19:31:32.738Z,76.24
2022-11-16T19:34:10.723Z,76.16
2022-11-16T19:36:39.495Z,76.06
2022-11-16T19:39:07.880Z,75.83
2022-11-16T19:41:36.235Z,75.79
2022-11-16T19:44:04.735Z,75.65
2022-11-16T19:46:34.115Z,75.64
2022-11-16T19:49:02.886Z,75.66
2022-11-16T19:51:33.405Z,75.65
2022-11-16T19:54:02.878Z,75.57
2022-11-16T19:56:31.483Z,75.44
2022-11-16T19:58:59.989Z,75.33
2022-11-16T20:01:29.674Z,75.64
2022-11-16T20:04:03.663Z,75.68
2022-11-16T20:06:34.952Z,76.00
2022-11-16T20:09:09.070Z,75.79
2022-11-16T20:11:40.352Z,75.71
2022-11-16T20:14:11.094Z,75.71
2022-11-16T20:16:41.582Z,75.65
2022-11-16T20:19:10.469Z,75.51
2022-11-16T20:21:42.936Z,75.64
2022-11-16T20:24:14.179Z,75.75
2022-11-16T20:26:44.869Z,75.76
2022-11-16T20:29:15.711Z,75.87
2022-11-16T20:31:45.581Z,75.78
2022-11-16T20:34:17.276Z,75.74
2022-11-16T20:36:47.303Z,75.96
2022-11-16T20:39:18.039Z,75.82
2022-11-16T20:41:48.065Z,75.59
2022-11-16T20:44:27.151Z,75.74
2022-11-16T20:46:55.383Z,75.89
2022-11-16T20:49:24.112Z,75.82
2022-11-16T20:51:52.456Z,75.92
2022-11-16T20:54:20.739Z,75.80
2022-11-16T20:56:50.435Z,75.81
2022-11-16T20:59:19.453Z,75.49
2022-11-16T21:01:48.986Z,75.38
2022-11-16T21:04:17.500Z,75.66
2022-11-16T21:06:45.772Z,75.52
2022-11-16T21:09:22.769Z,75.64
2022-11-16T21:12:09.965Z,75.60
2022-11-16T21:14:38.293Z,75.97
2022-11-16T21:17:06.617Z,75.87
2022-11-16T21:19:35.281Z,76.01
2022-11-16T21:22:03.485Z,75.87
2022-11-16T21:24:32.446Z,75.85
2022-11-16T21:27:00.757Z,76.05
2022-11-16T21:29:29.077Z,76.12
2022-11-16T21:31:57.455Z,76.37
2022-11-16T21:34:28.605Z,76.59
2022-11-16T21:36:57.113Z,76.75
2022-11-16T21:39:25.740Z,76.99
2022-11-16T21:41:54.164Z,76.91
2022-11-16T21:44:22.471Z,77.05
2022-11-16T21:46:50.885Z,76.98
2022-11-16T21:49:19.116Z,76.94
2022-11-16T21:51:47.388Z,76.81
2022-11-16T21:54:15.843Z,76.69
2022-11-16T21:56:44.071Z,76.52
2022-11-16T21:59:12.324Z,76.54
2022-11-16T22:01:59.430Z,76.77
2022-11-16T22:04:46.379Z,76.41
2022-11-16T22:07:33.551Z,76.67
2022-11-16T22:10:07.247Z,76.31
2022-11-16T22:15:59.013Z,76.26
2022-11-16T22:18:29.840Z,76.30
2022-11-16T22:20:58.227Z,76.51
2022-11-16T22:23:27.183Z,76.09
2022-11-16T22:26:00.383Z,75.98
2022-11-16T22:28:28.718Z,75.95
2022-11-16T22:31:05.441Z,76.20
2022-11-16T22:33:35.048Z,76.25
2022-11-16T22:36:04.490Z,76.34
2022-11-16T22:38:34.245Z,76.43
2022-11-16T22:41:02.803Z,76.42
2022-11-16T22:43:32.056Z,76.28
2022-11-16T22:46:06.235Z,76.32
2022-11-16T22:48:37.016Z,76.09
2022-11-16T22:51:17.947Z,76.14
2022-11-16T22:53:46.923Z,76.14
2022-11-16T22:56:15.396Z,76.05
2022-11-16T22:58:43.739Z,75.94
2022-11-16T23:01:12.220Z,75.65
2022-11-16T23:03:40.926Z,75.58
2022-11-16T23:06:09.841Z,75.72
2022-11-16T23:08:40.282Z,75.47
2022-11-16T23:11:29.936Z,75.87
2022-11-16T23:14:17.442Z,75.70
2022-11-16T23:16:46.138Z,75.52
2022-11-16T23:19:36.071Z,75.42
2022-11-16T23:22:24.247Z,75.59
2022-11-16T23:25:11.293Z,75.64
2022-11-16T23:27:51.853Z,75.64
2022-11-16T23:30:20.522Z,75.30
2022-11-16T23:32:48.955Z,75.30
2022-11-16T23:35:18.490Z,75.50
2022-11-16T23:37:54.257Z,75.46
2022-11-16T23:40:25.655Z,75.28
2022-11-16T23:43:13.532Z,75.21
2022-11-16T23:45:43.208Z,75.23
2022-11-16T23:48:14.271Z,75.18
2022-11-16T23:50:43.281Z,75.25
2022-11-16T23:53:11.910Z,75.55
2022-11-16T23:55:40.666Z,75.35
2022-11-16T23:58:14.476Z,75.18
